sensor_id;sensor_type;location;lat;lon;timestamp;pressure;altitude;pressure_sealevel;temperature;humidity
8569;BME280;4322;51.104;-4.162;2022-10-26T00:01:55;101852.25;;;15.90;100.00
8569;BME280;4322;51.104;-4.162;2022-10-26T00:04:26;101799.69;;;15.90;100.00
8569;BME280;4322;51.104;-4.162;2022-10-26T00:06:54;101773.38;;;15.90;100.00
8569;BME280;4322;51.104;-4.162;2022-10-26T00:09:30;101749.72;;;15.90;100.00
8569;BME280;4322;51.104;-4.162;2022-10-26T00:11:59;101727.94;;;15.88;100.00
8569;BME280;4322;51.104;-4.162;2022-10-26T00:14:29;101685.13;;;15.86;100.00
8569;BME280;4322;51.104;-4.162;2022-10-26T00:16:57;101665.19;;;15.82;100.00
8569;BME280;4322;51.104;-4.162;2022-10-26T00:19:25;101644.34;;;15.79;100.00
8569;BME280;4322;51.104;-4.162;2022-10-26T00:21:53;101633.16;;;15.75;100.00
8569;BME280;4322;51.104;-4.162;2022-10-26T00:24:21;101630.81;;;15.71;100.00
8569;BME280;4322;51.104;-4.162;2022-10-26T00:26:49;101617.03;;;15.66;100.00
8569;BME280;4322;51.104;-4.162;2022-10-26T00:29:18;101626.06;;;15.62;100.00
8569;BME280;4322;51.104;-4.162;2022-10-26T00:31:47;101633.34;;;15.57;100.00
8569;BME280;4322;51.104;-4.162;2022-10-26T00:34:16;101631.75;;;15.54;100.00
8569;BME280;4322;51.104;-4.162;2022-10-26T00:36:54;101645.81;;;15.53;100.00
8569;BME280;4322;51.104;-4.162;2022-10-26T00:39:24;101676.66;;;15.49;100.00
8569;BME280;4322;51.104;-4.162;2022-10-26T00:41:52;101702.16;;;15.47;100.00
8569;BME280;4322;51.104;-4.162;2022-10-26T00:47:33;101748.88;;;15.41;100.00
8569;BME280;4322;51.104;-4.162;2022-10-26T00:50:05;101785.00;;;15.37;100.00
8569;BME280;4322;51.104;-4.162;2022-10-26T00:52:36;101809.72;;;15.33;100.00
8569;BME280;4322;51.104;-4.162;2022-10-26T00:55:05;101836.06;;;15.32;100.00
8569;BME280;4322;51.104;-4.162;2022-10-26T00:57:37;101848.34;;;15.31;100.00
8569;BME280;4322;51.104;-4.162;2022-10-26T01:00:07;101880.88;;;15.29;100.00
8569;BME280;4322;51.104;-4.162;2022-10-26T01:02:37;101891.53;;;15.26;100.00
8569;BME280;4322;51.104;-4.162;2022-10-26T01:05:08;101922.22;;;15.25;100.00
8569;BME280;4322;51.104;-4.162;2022-10-26T01:07:38;101948.56;;;15.24;100.00
8569;BME280;4322;51.104;-4.162;2022-10-26T01:10:08;101974.88;;;15.22;100.00
8569;BME280;4322;51.104;-4.162;2022-10-26T01:12:39;102001.28;;;15.19;100.00
8569;BME280;4322;51.104;-4.162;2022-10-26T01:15:08;102045.16;;;15.17;100.00
8569;BME280;4322;51.104;-4.162;2022-10-26T01:17:47;102085.66;;;15.13;100.00
8569;BME280;4322;51.104;-4.162;2022-10-26T01:20:53;102136.53;;;15.11;100.00
8569;BME280;4322;51.104;-4.162;2022-10-26T01:23:33;102164.56;;;15.10;100.00
8569;BME280;4322;51.104;-4.162;2022-10-26T01:26:19;102189.19;;;15.08;100.00
8569;BME280;4322;51.104;-4.162;2022-10-26T01:29:13;102238.22;;;15.07;100.00
8569;BME280;4322;51.104;-4.162;2022-10-26T01:31:55;102276.88;;;15.04;100.00
8569;BME280;4322;51.104;-4.162;2022-10-26T01:34:32;102333.00;;;15.01;100.00
8569;BME280;4322;51.104;-4.162;2022-10-26T01:37:07;102375.94;;;15.00;100.00
8569;BME280;4322;51.104;-4.162;2022-10-26T01:39:45;102414.50;;;15.00;100.00
8569;BME280;4322;51.104;-4.162;2022-10-26T01:42:16;102450.38;;;14.99;100.00
8569;BME280;4322;51.104;-4.162;2022-10-26T01:44:48;102486.28;;;14.99;100.00
8569;BME280;4322;51.104;-4.162;2022-10-26T01:47:20;102514.28;;;15.00;100.00
8569;BME280;4322;51.104;-4.162;2022-10-26T01:49:52;102537.06;;;14.98;100.00
8569;BME280;4322;51.104;-4.162;2022-10-26T01:52:25;102565.06;;;14.99;100.00
8569;BME280;4322;51.104;-4.162;2022-10-26T01:55:00;102573.84;;;14.98;100.00
8569;BME280;4322;51.104;-4.162;2022-10-26T01:57:31;102602.69;;;14.99;100.00
8569;BME280;4322;51.104;-4.162;2022-10-26T02:00:07;102623.69;;;14.99;100.00
8569;BME280;4322;51.104;-4.162;2022-10-26T02:02:56;102632.47;;;14.98;100.00
8569;BME280;4322;51.104;-4.162;2022-10-26T02:05:44;102645.66;;;14.97;100.00
8569;BME280;4322;51.104;-4.162;2022-10-26T02:08:25;102653.66;;;14.94;100.00
8569;BME280;4322;51.104;-4.162;2022-10-26T02:11:03;102675.56;;;14.93;100.00
8569;BME280;4322;51.104;-4.162;2022-10-26T02:13:41;102685.19;;;14.92;100.00
8569;BME280;4322;51.104;-4.162;2022-10-26T02:16:20;102683.41;;;14.94;100.00
8569;BME280;4322;51.104;-4.162;2022-10-26T02:18:59;102692.19;;;14.93;100.00
8569;BME280;4322;51.104;-4.162;2022-10-26T02:21:34;102690.44;;;14.92;100.00
8569;BME280;4322;51.104;-4.162;2022-10-26T02:24:12;102708.00;;;14.92;100.00
8569;BME280;4322;51.104;-4.162;2022-10-26T02:26:44;102721.03;;;14.95;100.00
8569;BME280;4322;51.104;-4.162;2022-10-26T02:29:17;102718.22;;;14.99;100.00
8569;BME280;4322;51.104;-4.162;2022-10-26T02:31:50;102711.03;;;15.04;100.00
8569;BME280;4322;51.104;-4.162;2022-10-26T02:34:23;102719.59;;;15.09;100.00
8569;BME280;4322;51.104;-4.162;2022-10-26T02:36:55;102716.78;;;15.14;100.00
8569;BME280;4322;51.104;-4.162;2022-10-26T02:39:26;102730.56;;;15.20;100.00
8569;BME280;4322;51.104;-4.162;2022-10-26T02:42:00;102744.38;;;15.25;100.00
8569;BME280;4322;51.104;-4.162;2022-10-26T02:44:31;102764.38;;;15.29;100.00
8569;BME280;4322;51.104;-4.162;2022-10-26T02:47:04;102776.47;;;15.33;100.00
8569;BME280;4322;51.104;-4.162;2022-10-26T02:49:34;102781.63;;;15.36;100.00
8569;BME280;4322;51.104;-4.162;2022-10-26T02:52:09;102791.13;;;15.40;100.00
8569;BME280;4322;51.104;-4.162;2022-10-26T02:54:45;102793.56;;;15.45;100.00
8569;BME280;4322;51.104;-4.162;2022-10-26T02:57:18;102795.25;;;15.47;100.00
8569;BME280;4322;51.104;-4.162;2022-10-26T02:59:48;102799.50;;;15.52;100.00
8569;BME280;4322;51.104;-4.162;2022-10-26T03:02:18;102814.31;;;15.54;100.00
8569;BME280;4322;51.104;-4.162;2022-10-26T03:04:49;102806.31;;;15.57;100.00
8569;BME280;4322;51.104;-4.162;2022-10-26T03:07:20;102811.56;;;15.57;100.00
8569;BME280;4322;51.104;-4.162;2022-10-26T03:09:51;102814.91;;;15.61;100.00
8569;BME280;4322;51.104;-4.162;2022-10-26T03:12:19;102814.00;;;15.62;100.00
8569;BME280;4322;51.104;-4.162;2022-10-26T03:14:50;102818.34;;;15.63;100.00
8569;BME280;4322;51.104;-4.162;2022-10-26T03:17:18;102808.69;;;15.63;100.00
8569;BME280;4322;51.104;-4.162;2022-10-26T03:19:50;102816.47;;;15.66;100.00
8569;BME280;4322;51.104;-4.162;2022-10-26T03:22:20;102804.19;;;15.67;100.00
8569;BME280;4322;51.104;-4.162;2022-10-26T03:24:48;102805.84;;;15.69;100.00
8569;BME280;4322;51.104;-4.162;2022-10-26T03:27:16;102805.84;;;15.69;100.00
8569;BME280;4322;51.104;-4.162;2022-10-26T03:29:44;102810.22;;;15.69;100.00
8569;BME280;4322;51.104;-4.162;2022-10-26T03:32:12;102807.56;;;15.70;100.00
8569;BME280;4322;51.104;-4.162;2022-10-26T03:34:40;102798.75;;;15.71;100.00
8569;BME280;4322;51.104;-4.162;2022-10-26T03:37:09;102801.31;;;15.73;100.00
8569;BME280;4322;51.104;-4.162;2022-10-26T03:39:37;102795.13;;;15.74;100.00
8569;BME280;4322;51.104;-4.162;2022-10-26T03:42:05;102799.50;;;15.75;100.00
8569;BME280;4322;51.104;-4.162;2022-10-26T03:44:33;102793.38;;;15.74;100.00
8569;BME280;4322;51.104;-4.162;2022-10-26T03:47:01;102795.09;;;15.75;100.00
8569;BME280;4322;51.104;-4.162;2022-10-26T03:49:29;102795.00;;;15.77;100.00
8569;BME280;4322;51.104;-4.162;2022-10-26T03:51:57;102784.50;;;15.77;100.00
8569;BME280;4322;51.104;-4.162;2022-10-26T03:54:27;102789.72;;;15.78;100.00
8569;BME280;4322;51.104;-4.162;2022-10-26T03:56:55;102787.88;;;15.80;100.00
8569;BME280;4322;51.104;-4.162;2022-10-26T03:59:25;102787.00;;;15.80;100.00
8569;BME280;4322;51.104;-4.162;2022-10-26T04:01:53;102785.25;;;15.80;100.00
8569;BME280;4322;51.104;-4.162;2022-10-26T04:04:23;102780.84;;;15.81;100.00
8569;BME280;4322;51.104;-4.162;2022-10-26T04:06:51;102781.75;;;15.80;100.00
8569;BME280;4322;51.104;-4.162;2022-10-26T04:09:22;102781.75;;;15.80;100.00
8569;BME280;4322;51.104;-4.162;2022-10-26T04:11:53;102773.09;;;15.78;100.00
8569;BME280;4322;51.104;-4.162;2022-10-26T04:14:24;102779.19;;;15.78;100.00
8569;BME280;4322;51.104;-4.162;2022-10-26T04:16:55;102780.19;;;15.76;100.00
8569;BME280;4322;51.104;-4.162;2022-10-26T04:19:23;102782.84;;;15.74;100.00
8569;BME280;4322;51.104;-4.162;2022-10-26T04:21:51;102780.28;;;15.73;100.00
8569;BME280;4322;51.104;-4.162;2022-10-26T04:24:19;102777.72;;;15.71;100.00
8569;BME280;4322;51.104;-4.162;2022-10-26T04:26:46;102785.66;;;15.70;100.00
8569;BME280;4322;51.104;-4.162;2022-10-26T04:29:16;102769.88;;;15.70;100.00
8569;BME280;4322;51.104;-4.162;2022-10-26T04:31:44;102756.78;;;15.68;100.00
8569;BME280;4322;51.104;-4.162;2022-10-26T04:34:12;102762.03;;;15.68;100.00
8569;BME280;4322;51.104;-4.162;2022-10-26T04:36:40;102762.91;;;15.69;100.00
8569;BME280;4322;51.104;-4.162;2022-10-26T04:39:08;102770.78;;;15.69;100.00
8569;BME280;4322;51.104;-4.162;2022-10-26T04:41:36;102785.69;;;15.68;100.00
8569;BME280;4322;51.104;-4.162;2022-10-26T04:44:04;102783.03;;;15.70;100.00
8569;BME280;4322;51.104;-4.162;2022-10-26T04:46:33;102776.00;;;15.70;100.00
8569;BME280;4322;51.104;-4.162;2022-10-26T04:49:01;102772.50;;;15.70;100.00
8569;BME280;4322;51.104;-4.162;2022-10-26T04:51:35;102740.06;;;15.71;100.00
8569;BME280;4322;51.104;-4.162;2022-10-26T04:54:03;102754.13;;;15.70;100.00
8569;BME280;4322;51.104;-4.162;2022-10-26T04:56:34;102741.88;;;15.69;100.00
8569;BME280;4322;51.104;-4.162;2022-10-26T04:59:02;102747.13;;;15.69;100.00
8569;BME280;4322;51.104;-4.162;2022-10-26T05:01:30;102745.44;;;15.68;100.00
8569;BME280;4322;51.104;-4.162;2022-10-26T05:04:00;102744.50;;;15.69;100.00
8569;BME280;4322;51.104;-4.162;2022-10-26T05:06:29;102733.13;;;15.68;100.00
8569;BME280;4322;51.104;-4.162;2022-10-26T05:09:00;102736.63;;;15.69;100.00
8569;BME280;4322;51.104;-4.162;2022-10-26T05:11:31;102717.31;;;15.70;100.00
8569;BME280;4322;51.104;-4.162;2022-10-26T05:13:59;102726.97;;;15.69;100.00
8569;BME280;4322;51.104;-4.162;2022-10-26T05:16:28;102745.31;;;15.71;100.00
8569;BME280;4322;51.104;-4.162;2022-10-26T05:18:56;102756.66;;;15.71;100.00
8569;BME280;4322;51.104;-4.162;2022-10-26T05:21:28;102759.28;;;15.71;100.00
8569;BME280;4322;51.104;-4.162;2022-10-26T05:23:56;102789.09;;;15.72;100.00
8569;BME280;4322;51.104;-4.162;2022-10-26T05:26:24;102785.66;;;15.70;100.00
8569;BME280;4322;51.104;-4.162;2022-10-26T05:28:53;102782.16;;;15.69;100.00
8569;BME280;4322;51.104;-4.162;2022-10-26T05:31:21;102790.06;;;15.69;100.00
8569;BME280;4322;51.104;-4.162;2022-10-26T05:33:48;102794.44;;;15.69;100.00
8569;BME280;4322;51.104;-4.162;2022-10-26T05:36:17;102811.16;;;15.68;100.00
8569;BME280;4322;51.104;-4.162;2022-10-26T05:38:46;102812.06;;;15.67;100.00
8569;BME280;4322;51.104;-4.162;2022-10-26T05:41:14;102810.34;;;15.66;100.00
8569;BME280;4322;51.104;-4.162;2022-10-26T05:43:42;102812.97;;;15.66;100.00
8569;BME280;4322;51.104;-4.162;2022-10-26T05:46:16;102828.75;;;15.66;100.00
8569;BME280;4322;51.104;-4.162;2022-10-26T05:48:50;102826.13;;;15.66;100.00
8569;BME280;4322;51.104;-4.162;2022-10-26T05:51:18;102824.41;;;15.65;100.00
8569;BME280;4322;51.104;-4.162;2022-10-26T05:53:50;102829.69;;;15.65;100.00
8569;BME280;4322;51.104;-4.162;2022-10-26T05:56:31;102851.69;;;15.62;100.00
8569;BME280;4322;51.104;-4.162;2022-10-26T05:59:01;102852.66;;;15.60;100.00
8569;BME280;4322;51.104;-4.162;2022-10-26T06:01:43;102846.53;;;15.59;100.00
8569;BME280;4322;51.104;-4.162;2022-10-26T06:04:28;102851.00;;;15.57;100.00
8569;BME280;4322;51.104;-4.162;2022-10-26T06:06:58;102866.00;;;15.54;100.00
8569;BME280;4322;51.104;-4.162;2022-10-26T06:09:30;102838.97;;;15.50;100.00
8569;BME280;4322;51.104;-4.162;2022-10-26T06:12:02;102854.81;;;15.48;100.00
8569;BME280;4322;51.104;-4.162;2022-10-26T06:14:31;102838.31;;;15.43;100.00
8569;BME280;4322;51.104;-4.162;2022-10-26T06:17:10;102813.06;;;15.39;100.00
8569;BME280;4322;51.104;-4.162;2022-10-26T06:19:52;102795.69;;;15.35;100.00
8569;BME280;4322;51.104;-4.162;2022-10-26T06:22:43;102754.78;;;15.28;100.00
8569;BME280;4322;51.104;-4.162;2022-10-26T06:25:24;102703.41;;;15.21;100.00
8569;BME280;4322;51.104;-4.162;2022-10-26T06:28:02;102695.78;;;15.14;100.00
8569;BME280;4322;51.104;-4.162;2022-10-26T06:30:33;102689.91;;;15.07;100.00
8569;BME280;4322;51.104;-4.162;2022-10-26T06:33:01;102691.75;;;15.05;100.00
8569;BME280;4322;51.104;-4.162;2022-10-26T06:35:50;102677.91;;;15.00;100.00
8569;BME280;4322;51.104;-4.162;2022-10-26T06:38:22;102662.28;;;14.97;100.00
8569;BME280;4322;51.104;-4.162;2022-10-26T06:40:56;102659.91;;;14.89;100.00
8569;BME280;4322;51.104;-4.162;2022-10-26T06:43:27;102659.19;;;14.86;100.00
8569;BME280;4322;51.104;-4.162;2022-10-26T06:46:00;102659.31;;;14.83;100.00
8569;BME280;4322;51.104;-4.162;2022-10-26T06:48:43;102659.34;;;14.81;100.00
8569;BME280;4322;51.104;-4.162;2022-10-26T06:51:15;102649.81;;;14.79;100.00
8569;BME280;4322;51.104;-4.162;2022-10-26T06:53:50;102650.78;;;14.76;100.00
8569;BME280;4322;51.104;-4.162;2022-10-26T06:56:25;102647.44;;;14.73;100.00
8569;BME280;4322;51.104;-4.162;2022-10-26T06:59:02;102647.44;;;14.73;100.00
8569;BME280;4322;51.104;-4.162;2022-10-26T07:01:33;102651.00;;;14.70;100.00
8569;BME280;4322;51.104;-4.162;2022-10-26T07:04:01;102653.63;;;14.70;100.00
8569;BME280;4322;51.104;-4.162;2022-10-26T07:06:29;102661.56;;;14.69;100.00
8569;BME280;4322;51.104;-4.162;2022-10-26T07:09:02;102661.56;;;14.69;100.00
8569;BME280;4322;51.104;-4.162;2022-10-26T07:11:31;102658.88;;;14.70;100.00
8569;BME280;4322;51.104;-4.162;2022-10-26T07:13:59;102652.78;;;14.70;100.00
8569;BME280;4322;51.104;-4.162;2022-10-26T07:16:27;102652.78;;;14.70;100.00
8569;BME280;4322;51.104;-4.162;2022-10-26T07:18:55;102637.94;;;14.69;100.00
8569;BME280;4322;51.104;-4.162;2022-10-26T07:21:23;102635.25;;;14.70;100.00
8569;BME280;4322;51.104;-4.162;2022-10-26T07:23:53;102623.84;;;14.71;100.00
8569;BME280;4322;51.104;-4.162;2022-10-26T07:26:22;102629.84;;;14.75;100.00
8569;BME280;4322;51.104;-4.162;2022-10-26T07:28:53;102603.66;;;14.73;100.00
8569;BME280;4322;51.104;-4.162;2022-10-26T07:31:21;102605.44;;;14.73;100.00
8569;BME280;4322;51.104;-4.162;2022-10-26T07:33:49;102597.56;;;14.73;100.00
8569;BME280;4322;51.104;-4.162;2022-10-26T07:36:17;102591.38;;;14.74;100.00
8569;BME280;4322;51.104;-4.162;2022-10-26T07:38:45;102591.38;;;14.74;100.00
8569;BME280;4322;51.104;-4.162;2022-10-26T07:41:13;102594.81;;;14.76;100.00
8569;BME280;4322;51.104;-4.162;2022-10-26T07:43:41;102591.28;;;14.77;100.00
8569;BME280;4322;51.104;-4.162;2022-10-26T07:46:13;102597.28;;;14.80;100.00
8569;BME280;4322;51.104;-4.162;2022-10-26T07:48:45;102586.69;;;14.82;100.00
8569;BME280;4322;51.104;-4.162;2022-10-26T07:51:13;102567.34;;;14.84;100.00
8569;BME280;4322;51.104;-4.162;2022-10-26T07:53:41;102547.97;;;14.88;100.00
8569;BME280;4322;51.104;-4.162;2022-10-26T07:56:12;102522.56;;;14.89;100.00
8569;BME280;4322;51.104;-4.162;2022-10-26T07:58:41;102496.31;;;14.89;100.00
8569;BME280;4322;51.104;-4.162;2022-10-26T08:01:10;102475.16;;;14.92;100.00
8569;BME280;4322;51.104;-4.162;2022-10-26T08:03:40;102446.28;;;14.92;100.00
8569;BME280;4322;51.104;-4.162;2022-10-26T08:06:08;102438.38;;;14.94;100.00
8569;BME280;4322;51.104;-4.162;2022-10-26T08:08:39;102420.84;;;14.94;100.00
8569;BME280;4322;51.104;-4.162;2022-10-26T08:11:12;102401.53;;;14.95;100.00
8569;BME280;4322;51.104;-4.162;2022-10-26T08:13:43;102380.53;;;14.95;100.00
8569;BME280;4322;51.104;-4.162;2022-10-26T08:16:14;102361.25;;;14.96;100.00
8569;BME280;4322;51.104;-4.162;2022-10-26T08:18:45;102347.13;;;14.99;100.00
8569;BME280;4322;51.104;-4.162;2022-10-26T08:21:26;102320.78;;;15.00;100.00
8569;BME280;4322;51.104;-4.162;2022-10-26T08:24:06;102307.53;;;15.03;100.00
8569;BME280;4322;51.104;-4.162;2022-10-26T08:26:34;102286.47;;;15.05;100.00
8569;BME280;4322;51.104;-4.162;2022-10-26T08:29:02;102263.72;;;15.05;100.00
8569;BME280;4322;51.104;-4.162;2022-10-26T08:31:30;102242.56;;;15.08;100.00
8569;BME280;4322;51.104;-4.162;2022-10-26T08:34:01;102229.34;;;15.10;100.00
8569;BME280;4322;51.104;-4.162;2022-10-26T08:36:30;102217.94;;;15.11;100.00
8569;BME280;4322;51.104;-4.162;2022-10-26T08:38:58;102188.97;;;15.12;100.00
8569;BME280;4322;51.104;-4.162;2022-10-26T08:41:33;102176.63;;;15.14;100.00
8569;BME280;4322;51.104;-4.162;2022-10-26T08:44:06;102173.84;;;15.17;100.00
8569;BME280;4322;51.104;-4.162;2022-10-26T08:46:43;102158.88;;;15.19;100.00
8569;BME280;4322;51.104;-4.162;2022-10-26T08:49:19;102162.31;;;15.21;100.00
8569;BME280;4322;51.104;-4.162;2022-10-26T08:51:51;102160.44;;;15.23;100.00
8569;BME280;4322;51.104;-4.162;2022-10-26T08:54:32;102162.16;;;15.24;100.00
8569;BME280;4322;51.104;-4.162;2022-10-26T08:57:14;102155.91;;;15.27;100.00
8569;BME280;4322;51.104;-4.162;2022-10-26T08:59:46;102150.53;;;15.30;100.00
8569;BME280;4322;51.104;-4.162;2022-10-26T09:02:16;102152.97;;;15.33;100.00
8569;BME280;4322;51.104;-4.162;2022-10-26T09:04:46;102126.66;;;15.34;100.00
8569;BME280;4322;51.104;-4.162;2022-10-26T09:07:38;102113.38;;;15.37;100.00
8569;BME280;4322;51.104;-4.162;2022-10-26T09:10:18;102123.78;;;15.39;100.00
8569;BME280;4322;51.104;-4.162;2022-10-26T09:12:53;102116.53;;;15.44;100.00
8569;BME280;4322;51.104;-4.162;2022-10-26T09:15:33;102091.00;;;15.47;100.00
8569;BME280;4322;51.104;-4.162;2022-10-26T09:18:14;102061.88;;;15.52;100.00
8569;BME280;4322;51.104;-4.162;2022-10-26T09:21:03;102038.88;;;15.57;100.00
8569;BME280;4322;51.104;-4.162;2022-10-26T09:23:53;102002.75;;;15.61;100.00
8569;BME280;4322;51.104;-4.162;2022-10-26T09:26:32;101969.34;;;15.63;100.00
8569;BME280;4322;51.104;-4.162;2022-10-26T09:29:32;101985.84;;;15.66;100.00
8569;BME280;4322;51.104;-4.162;2022-10-26T09:32:17;101945.41;;;15.69;100.00
8569;BME280;4322;51.104;-4.162;2022-10-26T09:34:48;101916.44;;;15.70;100.00
8569;BME280;4322;51.104;-4.162;2022-10-26T09:37:23;101902.13;;;15.76;100.00
8569;BME280;4322;51.104;-4.162;2022-10-26T09:39:58;101890.59;;;15.78;100.00
8569;BME280;4322;51.104;-4.162;2022-10-26T09:42:36;101862.19;;;15.85;100.00
8569;BME280;4322;51.104;-4.162;2022-10-26T09:45:12;101839.38;;;15.85;100.00
8569;BME280;4322;51.104;-4.162;2022-10-26T09:47:46;101822.59;;;15.88;100.00
8569;BME280;4322;51.104;-4.162;2022-10-26T09:50:22;101791.72;;;15.91;100.00
8569;BME280;4322;51.104;-4.162;2022-10-26T09:52:52;101770.53;;;15.94;100.00
8569;BME280;4322;51.104;-4.162;2022-10-26T09:55:20;101763.13;;;16.01;100.00
8569;BME280;4322;51.104;-4.162;2022-10-26T09:57:51;101743.34;;;16.09;100.00
8569;BME280;4322;51.104;-4.162;2022-10-26T10:00:21;101735.97;;;16.16;100.00
8569;BME280;4322;51.104;-4.162;2022-10-26T10:02:52;101719.06;;;16.20;100.00
8569;BME280;4322;51.104;-4.162;2022-10-26T10:05:26;101706.69;;;16.22;100.00
8569;BME280;4322;51.104;-4.162;2022-10-26T10:08:18;101696.94;;;16.24;100.00
8569;BME280;4322;51.104;-4.162;2022-10-26T10:10:59;101688.88;;;16.27;100.00
8569;BME280;4322;51.104;-4.162;2022-10-26T10:13:29;101671.94;;;16.31;100.00
8569;BME280;4322;51.104;-4.162;2022-10-26T10:16:02;101668.22;;;16.35;100.00
8569;BME280;4322;51.104;-4.162;2022-10-26T10:18:32;101644.34;;;16.38;100.00
8569;BME280;4322;51.104;-4.162;2022-10-26T10:21:00;101637.03;;;16.43;100.00
8569;BME280;4322;51.104;-4.162;2022-10-26T10:23:32;101644.75;;;16.46;100.00
8569;BME280;4322;51.104;-4.162;2022-10-26T10:26:04;101625.38;;;16.47;100.00
8569;BME280;4322;51.104;-4.162;2022-10-26T10:28:33;101620.88;;;16.49;100.00
8569;BME280;4322;51.104;-4.162;2022-10-26T10:31:03;101625.94;;;16.52;100.00
8569;BME280;4322;51.104;-4.162;2022-10-26T10:33:36;101601.06;;;16.58;100.00
8569;BME280;4322;51.104;-4.162;2022-10-26T10:36:07;101603.44;;;16.62;100.00
8569;BME280;4322;51.104;-4.162;2022-10-26T10:38:39;101592.53;;;16.69;100.00
8569;BME280;4322;51.104;-4.162;2022-10-26T10:41:19;101581.06;;;16.70;100.00
8569;BME280;4322;51.104;-4.162;2022-10-26T10:43:51;101566.13;;;16.70;100.00
8569;BME280;4322;51.104;-4.162;2022-10-26T10:46:22;101556.13;;;16.75;100.00
8569;BME280;4322;51.104;-4.162;2022-10-26T10:48:54;101559.06;;;16.85;100.00
8569;BME280;4322;51.104;-4.162;2022-10-26T10:51:29;101564.59;;;16.94;100.00
8569;BME280;4322;51.104;-4.162;2022-10-26T10:54:04;101540.81;;;16.96;100.00
8569;BME280;4322;51.104;-4.162;2022-10-26T10:56:37;101546.25;;;16.93;100.00
8569;BME280;4322;51.104;-4.162;2022-10-26T10:59:27;101555.75;;;16.95;100.00
8569;BME280;4322;51.104;-4.162;2022-10-26T11:02:16;101557.22;;;16.99;100.00
8569;BME280;4322;51.104;-4.162;2022-10-26T11:05:16;101551.03;;;17.00;100.00
8569;BME280;4322;51.104;-4.162;2022-10-26T11:07:56;101552.06;;;16.98;100.00
8569;BME280;4322;51.104;-4.162;2022-10-26T11:10:29;101558.75;;;17.03;100.00
8569;BME280;4322;51.104;-4.162;2022-10-26T11:13:03;101559.00;;;17.13;100.00
8569;BME280;4322;51.104;-4.162;2022-10-26T11:15:36;101576.94;;;17.20;100.00
8569;BME280;4322;51.104;-4.162;2022-10-26T11:18:11;101585.31;;;17.27;100.00
8569;BME280;4322;51.104;-4.162;2022-10-26T11:20:43;101587.44;;;17.35;100.00
8569;BME280;4322;51.104;-4.162;2022-10-26T11:23:16;101596.16;;;17.49;100.00
8569;BME280;4322;51.104;-4.162;2022-10-26T11:25:50;101609.69;;;17.71;100.00
8569;BME280;4322;51.104;-4.162;2022-10-26T11:28:28;101600.75;;;17.87;100.00
8569;BME280;4322;51.104;-4.162;2022-10-26T11:31:02;101614.03;;;17.85;100.00
8569;BME280;4322;51.104;-4.162;2022-10-26T11:33:35;101600.81;;;17.72;100.00
8569;BME280;4322;51.104;-4.162;2022-10-26T11:36:09;101609.81;;;17.56;100.00
8569;BME280;4322;51.104;-4.162;2022-10-26T11:38:46;101600.34;;;17.39;100.00
8569;BME280;4322;51.104;-4.162;2022-10-26T11:41:28;101594.91;;;17.28;100.00
8569;BME280;4322;51.104;-4.162;2022-10-26T11:44:04;101603.75;;;17.27;100.00
8569;BME280;4322;51.104;-4.162;2022-10-26T11:46:36;101616.00;;;17.28;100.00
8569;BME280;4322;51.104;-4.162;2022-10-26T11:49:10;101628.31;;;17.27;100.00
8569;BME280;4322;51.104;-4.162;2022-10-26T11:51:45;101632.72;;;17.27;100.00
8569;BME280;4322;51.104;-4.162;2022-10-26T11:54:21;101642.16;;;17.31;100.00
8569;BME280;4322;51.104;-4.162;2022-10-26T11:56:54;101649.28;;;17.29;100.00
8569;BME280;4322;51.104;-4.162;2022-10-26T11:59:24;101637.06;;;17.28;100.00
8569;BME280;4322;51.104;-4.162;2022-10-26T12:02:03;101639.97;;;17.23;100.00
8569;BME280;4322;51.104;-4.162;2022-10-26T12:04:34;101625.22;;;17.21;100.00
8569;BME280;4322;51.104;-4.162;2022-10-26T12:07:09;101626.63;;;17.26;100.00
8569;BME280;4322;51.104;-4.162;2022-10-26T12:09:42;101618.22;;;17.34;100.00
8569;BME280;4322;51.104;-4.162;2022-10-26T12:12:17;101634.88;;;17.35;100.00
8569;BME280;4322;51.104;-4.162;2022-10-26T12:14:51;101631.13;;;17.39;100.00
8569;BME280;4322;51.104;-4.162;2022-10-26T12:17:27;101616.28;;;17.50;100.00
8569;BME280;4322;51.104;-4.162;2022-10-26T12:20:02;101600.75;;;17.60;100.00
8569;BME280;4322;51.104;-4.162;2022-10-26T12:22:33;101603.16;;;17.77;100.00
8569;BME280;4322;51.104;-4.162;2022-10-26T12:25:20;101596.97;;;17.91;100.00
8569;BME280;4322;51.104;-4.162;2022-10-26T12:27:52;101597.50;;;17.96;100.00
8569;BME280;4322;51.104;-4.162;2022-10-26T12:30:28;101603.41;;;17.99;100.00
8569;BME280;4322;51.104;-4.162;2022-10-26T12:32:58;101598.16;;;18.12;100.00
8569;BME280;4322;51.104;-4.162;2022-10-26T12:35:44;101597.97;;;18.27;100.00
8569;BME280;4322;51.104;-4.162;2022-10-26T12:41:36;101596.50;;;18.23;100.00
8569;BME280;4322;51.104;-4.162;2022-10-26T12:44:33;101608.84;;;18.23;100.00
8569;BME280;4322;51.104;-4.162;2022-10-26T12:47:02;101608.53;;;18.15;100.00
8569;BME280;4322;51.104;-4.162;2022-10-26T12:52:50;101624.97;;;18.18;100.00
8569;BME280;4322;51.104;-4.162;2022-10-26T12:55:53;101634.28;;;18.24;100.00
8569;BME280;4322;51.104;-4.162;2022-10-26T12:59:01;101630.81;;;18.36;100.00
8569;BME280;4322;51.104;-4.162;2022-10-26T13:04:47;101628.03;;;18.64;100.00
8569;BME280;4322;51.104;-4.162;2022-10-26T13:07:21;101622.69;;;18.89;100.00
8569;BME280;4322;51.104;-4.162;2022-10-26T13:09:58;101621.41;;;19.08;100.00
8569;BME280;4322;51.104;-4.162;2022-10-26T13:12:35;101625.00;;;19.07;100.00
8569;BME280;4322;51.104;-4.162;2022-10-26T13:15:22;101630.50;;;19.03;100.00
8569;BME280;4322;51.104;-4.162;2022-10-26T13:17:58;101618.19;;;18.91;100.00
8569;BME280;4322;51.104;-4.162;2022-10-26T13:20:29;101620.56;;;18.94;100.00
8569;BME280;4322;51.104;-4.162;2022-10-26T13:22:58;101634.50;;;19.09;100.00
8569;BME280;4322;51.104;-4.162;2022-10-26T13:25:29;101642.47;;;19.33;100.00
8569;BME280;4322;51.104;-4.162;2022-10-26T13:28:00;101649.06;;;19.40;100.00
8569;BME280;4322;51.104;-4.162;2022-10-26T13:30:42;101642.81;;;19.41;100.00
8569;BME280;4322;51.104;-4.162;2022-10-26T13:33:27;101637.03;;;19.23;100.00
8569;BME280;4322;51.104;-4.162;2022-10-26T13:36:09;101634.09;;;19.02;100.00